createdAt,value
2019-03-28T00:01:48.536Z,14.10
2019-03-28T00:04:38.835Z,13.50
2019-03-28T00:07:26.742Z,15.30
2019-03-28T00:10:13.840Z,13.77
2019-03-28T00:13:00.672Z,16.87
2019-03-28T00:18:57.390Z,15.00
2019-03-28T00:21:42.301Z,15.65
2019-03-28T00:24:29.429Z,15.35
2019-03-28T00:27:17.653Z,13.10
2019-03-28T00:30:08.052Z,12.10
2019-03-28T00:32:54.847Z,13.90
2019-03-28T00:35:41.976Z,12.27
2019-03-28T00:38:30.100Z,14.83
2019-03-28T00:41:16.935Z,17.60
2019-03-28T00:44:04.028Z,12.43
2019-03-28T00:46:54.627Z,16.00
2019-03-28T00:49:42.273Z,16.30
2019-03-28T00:52:29.250Z,18.10
2019-03-28T00:55:16.086Z,15.93
2019-03-28T00:58:02.809Z,14.60
2019-03-28T01:00:50.443Z,14.30
2019-03-28T01:03:37.251Z,16.63
2019-03-28T01:06:23.910Z,17.13
2019-03-28T01:09:10.724Z,15.07
2019-03-28T01:11:57.812Z,13.20
2019-03-28T01:14:45.693Z,16.53
2019-03-28T01:17:33.220Z,16.57
2019-03-28T01:20:20.766Z,17.10
2019-03-28T01:23:08.247Z,16.70
2019-03-28T01:25:55.083Z,19.77
2019-03-28T01:28:41.895Z,15.77
2019-03-28T01:31:30.155Z,21.27
2019-03-28T01:34:17.355Z,15.30
2019-03-28T01:37:05.304Z,20.17
2019-03-28T01:42:58.691Z,16.20
2019-03-28T01:48:52.432Z,22.67
2019-03-28T01:51:40.270Z,15.20
2019-03-28T01:54:27.200Z,19.83
2019-03-28T01:57:14.580Z,16.63
2019-03-28T02:00:03.184Z,17.33
2019-03-28T02:05:57.746Z,18.37
2019-03-28T02:09:17.950Z,15.37
2019-03-28T02:12:05.285Z,21.08
2019-03-28T02:14:52.479Z,21.37
2019-03-28T02:17:39.285Z,17.67
2019-03-28T02:20:26.580Z,15.67
2019-03-28T02:23:17.052Z,16.07
2019-03-28T02:26:04.399Z,18.50
2019-03-28T02:28:51.515Z,20.37
2019-03-28T02:31:42.952Z,20.93
2019-03-28T02:34:29.790Z,18.17
2019-03-28T02:37:16.677Z,15.60
2019-03-28T02:40:04.697Z,13.77
2019-03-28T02:42:53.520Z,18.23
2019-03-28T02:45:41.279Z,15.07
2019-03-28T02:48:28.576Z,21.30
2019-03-28T02:51:15.735Z,17.73
2019-03-28T02:54:02.778Z,16.50
2019-03-28T02:56:50.358Z,21.08
2019-03-28T02:59:38.315Z,18.42
2019-03-28T03:02:25.025Z,16.20
2019-03-28T03:05:12.936Z,17.67
2019-03-28T03:11:06.223Z,16.92
2019-03-28T03:13:53.665Z,16.90
2019-03-28T03:16:40.464Z,17.00
2019-03-28T03:22:42.509Z,18.98
2019-03-28T03:25:30.348Z,17.08
2019-03-28T03:28:17.451Z,18.53
2019-03-28T03:31:04.367Z,17.20
2019-03-28T03:33:51.709Z,18.37
2019-03-28T03:36:38.602Z,16.33
2019-03-28T03:39:25.887Z,17.03
2019-03-28T03:42:12.654Z,19.53
2019-03-28T03:45:00.614Z,16.50
2019-03-28T03:47:48.528Z,15.97
2019-03-28T03:50:35.731Z,22.03
2019-03-28T03:56:39.944Z,17.57
2019-03-28T03:59:26.755Z,16.53
2019-03-28T04:02:14.816Z,19.83
2019-03-28T04:08:22.342Z,19.10
2019-03-28T04:11:10.020Z,16.43
2019-03-28T04:13:57.442Z,17.00
2019-03-28T04:16:44.617Z,19.53
2019-03-28T04:19:32.067Z,18.60
2019-03-28T04:35:28.171Z,20.10
2019-03-28T04:48:07.664Z,18.97
2019-03-28T04:54:01.361Z,21.00
2019-03-28T04:56:48.306Z,23.10
2019-03-28T04:59:36.226Z,29.35
2019-03-28T05:02:23.048Z,24.43
2019-03-28T05:05:10.410Z,25.12
2019-03-28T05:07:58.058Z,25.47
2019-03-28T05:10:44.952Z,28.12
2019-03-28T05:13:41.618Z,29.63
2019-03-28T05:16:28.619Z,27.03
2019-03-28T05:22:22.427Z,30.83
2019-03-28T05:25:09.226Z,30.53
2019-03-28T05:27:56.222Z,25.43
2019-03-28T05:30:43.852Z,34.75
2019-03-28T05:36:36.790Z,28.33
2019-03-28T05:39:23.930Z,27.00
2019-03-28T05:42:10.977Z,27.17
2019-03-28T05:44:58.280Z,24.50
2019-03-28T05:47:45.513Z,28.10
2019-03-28T05:56:44.370Z,28.97
2019-03-28T05:59:31.158Z,25.97
2019-03-28T06:02:32.160Z,23.00
2019-03-28T06:05:18.842Z,25.13
2019-03-28T06:08:06.804Z,24.40
2019-03-28T06:10:54.102Z,27.03
2019-03-28T06:19:52.542Z,21.47
2019-03-28T06:22:39.916Z,22.60
2019-03-28T06:40:58.651Z,19.03
2019-03-28T06:43:45.365Z,21.13
2019-03-28T06:46:32.270Z,20.52
2019-03-28T06:49:19.283Z,22.13
2019-03-28T06:52:07.726Z,19.60
2019-03-28T06:54:56.420Z,20.50
2019-03-28T07:07:04.434Z,22.20
2019-03-28T07:16:05.241Z,20.67
2019-03-28T07:18:53.405Z,18.67
2019-03-28T07:24:47.604Z,20.20
2019-03-28T07:27:34.715Z,21.07
2019-03-28T07:30:21.864Z,19.60
2019-03-28T07:33:09.077Z,20.90
2019-03-28T07:35:56.349Z,17.07
2019-03-28T07:51:07.583Z,22.63
2019-03-28T08:00:12.756Z,21.80
2019-03-28T08:02:59.452Z,14.98
2019-03-28T08:05:46.365Z,17.17
2019-03-28T08:08:38.633Z,18.73
2019-03-28T08:11:20.746Z,14.30
2019-03-28T08:14:08.303Z,13.77
2019-03-28T08:16:56.562Z,13.07
2019-03-28T08:19:43.680Z,17.95
2019-03-28T08:22:30.882Z,13.98
2019-03-28T08:28:24.120Z,11.88
2019-03-28T08:31:10.875Z,14.55
2019-03-28T08:34:12.422Z,15.00
2019-03-28T08:58:50.392Z,12.15
2019-03-28T09:01:37.913Z,15.65
2019-03-28T09:04:24.938Z,15.68
2019-03-28T09:07:12.113Z,16.70
2019-03-28T09:16:12.269Z,16.65
2019-03-28T09:18:59.544Z,18.87
2019-03-28T09:28:03.320Z,15.93
2019-03-28T09:30:50.506Z,11.93
2019-03-28T09:36:53.636Z,17.12
2019-03-28T09:39:40.692Z,14.23
2019-03-28T09:42:27.853Z,14.10
2019-03-28T09:45:14.943Z,13.10
2019-03-28T09:48:01.884Z,13.40
2019-03-28T09:50:48.486Z,12.40
2019-03-28T09:53:36.420Z,11.40
2019-03-28T09:56:23.643Z,14.05
2019-03-28T09:59:10.690Z,15.68
2019-03-28T10:05:09.717Z,13.32
2019-03-28T10:07:56.697Z,13.35
2019-03-28T10:10:44.102Z,14.35
2019-03-28T10:16:40.232Z,15.07
2019-03-28T10:19:24.791Z,11.18
2019-03-28T10:22:12.115Z,9.75
2019-03-28T10:28:06.190Z,12.55
2019-03-28T10:30:53.707Z,9.63
2019-03-28T10:33:40.497Z,12.23
2019-03-28T10:36:28.007Z,11.63
2019-03-28T10:39:14.898Z,9.95
2019-03-28T10:42:02.250Z,9.80
2019-03-28T10:47:55.362Z,11.15
2019-03-28T10:50:45.619Z,14.73
2019-03-28T10:53:30.274Z,10.45
2019-03-28T10:56:21.886Z,11.45
2019-03-28T10:59:03.449Z,11.68
2019-03-28T11:01:51.185Z,11.52
2019-03-28T11:04:37.558Z,9.57
2019-03-28T11:07:25.137Z,10.75
2019-03-28T11:10:11.905Z,10.23
2019-03-28T11:12:59.112Z,13.25
2019-03-28T11:15:46.335Z,10.35
2019-03-28T11:18:33.094Z,13.35
2019-03-28T11:21:20.078Z,13.95
2019-03-28T11:24:07.770Z,10.80
2019-03-28T11:26:54.891Z,10.85
2019-03-28T11:29:41.958Z,11.98
2019-03-28T11:32:28.747Z,10.77
2019-03-28T11:35:16.289Z,10.82
2019-03-28T11:38:03.678Z,11.68
2019-03-28T11:40:50.810Z,13.57
2019-03-28T11:43:39.207Z,13.52
2019-03-28T11:49:34.586Z,10.70
2019-03-28T11:52:21.693Z,12.18
2019-03-28T11:55:08.627Z,10.55
2019-03-28T11:57:56.617Z,12.70
2019-03-28T12:00:42.955Z,11.70
2019-03-28T12:03:29.736Z,10.90
2019-03-28T12:06:17.202Z,10.67
2019-03-28T12:09:05.222Z,8.57
2019-03-28T12:11:53.051Z,7.72
2019-03-28T12:14:38.860Z,7.93
2019-03-28T12:17:25.756Z,9.02
2019-03-28T12:20:13.213Z,8.68
2019-03-28T12:23:00.710Z,7.37
2019-03-28T12:25:47.624Z,10.70
2019-03-28T12:28:34.817Z,9.13
2019-03-28T12:31:21.957Z,7.30
2019-03-28T12:34:09.102Z,8.20
2019-03-28T12:36:56.485Z,9.50
2019-03-28T12:39:43.188Z,9.05
2019-03-28T12:42:31.225Z,6.72
2019-03-28T12:45:18.754Z,7.40
2019-03-28T12:48:05.691Z,7.62
2019-03-28T12:50:58.727Z,8.13
2019-03-28T12:53:39.415Z,8.00
2019-03-28T12:56:26.506Z,9.98
2019-03-28T12:59:13.241Z,11.35
2019-03-28T13:02:00.465Z,7.53
2019-03-28T13:04:48.688Z,7.00
2019-03-28T13:07:36.640Z,8.02
2019-03-28T13:10:23.752Z,6.32
2019-03-28T13:13:10.467Z,6.75
2019-03-28T13:15:57.227Z,8.82
2019-03-28T13:18:46.441Z,9.00
2019-03-28T13:21:33.080Z,8.15
2019-03-28T13:24:20.577Z,6.93
2019-03-28T13:30:14.800Z,9.27
2019-03-28T13:33:01.909Z,8.20
2019-03-28T13:35:49.340Z,8.93
2019-03-28T13:38:36.435Z,7.68
2019-03-28T13:41:24.240Z,7.72
2019-03-28T13:44:12.364Z,8.80
2019-03-28T13:46:59.293Z,8.80
2019-03-28T13:49:46.670Z,8.40
2019-03-28T13:52:34.156Z,8.13
2019-03-28T13:55:21.479Z,7.72
2019-03-28T13:58:08.396Z,9.20
2019-03-28T14:04:20.933Z,7.82
2019-03-28T14:07:07.935Z,6.82
2019-03-28T14:09:54.711Z,5.65
2019-03-28T14:12:41.554Z,7.50
2019-03-28T14:15:28.921Z,8.65
2019-03-28T14:18:16.984Z,6.55
2019-03-28T14:21:04.101Z,10.43
2019-03-28T14:23:51.291Z,9.55
2019-03-28T14:26:53.408Z,9.02
2019-03-28T14:29:40.614Z,7.10
2019-03-28T14:32:28.632Z,8.68
2019-03-28T14:35:15.481Z,7.15
2019-03-28T14:38:02.792Z,8.48
2019-03-28T14:40:50.087Z,7.60
2019-03-28T14:43:37.010Z,6.28
2019-03-28T14:46:24.501Z,7.45
2019-03-28T14:49:11.774Z,8.32
2019-03-28T14:51:58.882Z,7.10
2019-03-28T14:54:45.688Z,6.57
2019-03-28T14:57:32.893Z,12.55
2019-03-28T15:00:24.000Z,12.55
2019-03-28T15:03:24.555Z,8.00
2019-03-28T15:09:05.513Z,8.77
2019-03-28T15:11:52.266Z,6.03
2019-03-28T15:14:39.295Z,6.45
2019-03-28T15:17:26.360Z,6.70
2019-03-28T15:20:13.655Z,11.45
2019-03-28T15:23:00.304Z,9.25
2019-03-28T15:25:47.614Z,10.73
2019-03-28T15:28:34.597Z,6.05
2019-03-28T15:31:22.770Z,6.22
2019-03-28T15:34:09.992Z,7.00
2019-03-28T15:43:10.656Z,7.03
2019-03-28T15:45:59.566Z,7.75
2019-03-28T15:48:46.908Z,7.82
2019-03-28T15:51:33.972Z,9.20
2019-03-28T15:54:21.370Z,7.00
2019-03-28T15:57:08.982Z,8.32
2019-03-28T15:59:55.888Z,6.22
2019-03-28T16:02:43.114Z,8.70
2019-03-28T16:05:30.555Z,9.32
2019-03-28T16:08:17.766Z,8.30
2019-03-28T16:11:04.583Z,14.27
2019-03-28T16:13:51.798Z,25.45
2019-03-28T16:16:38.710Z,11.40
2019-03-28T16:19:25.637Z,10.38
2019-03-28T16:22:15.537Z,9.85
2019-03-28T16:24:59.921Z,9.60
2019-03-28T16:27:46.681Z,8.32
2019-03-28T16:30:37.122Z,9.18
2019-03-28T16:33:24.775Z,9.30
2019-03-28T16:36:12.123Z,11.02
2019-03-28T16:38:59.729Z,9.75
2019-03-28T16:41:46.775Z,7.80
2019-03-28T16:44:41.778Z,10.00
2019-03-28T16:47:28.506Z,9.85
2019-03-28T16:50:15.291Z,11.25
2019-03-28T16:53:02.687Z,11.35
2019-03-28T16:58:55.778Z,10.23
2019-03-28T17:01:43.199Z,12.57
2019-03-28T17:04:30.211Z,9.35
2019-03-28T17:07:17.735Z,8.63
2019-03-28T17:10:08.132Z,8.82
2019-03-28T17:16:02.603Z,8.73
2019-03-28T17:18:49.289Z,7.72
2019-03-28T17:21:36.839Z,9.90
2019-03-28T17:24:23.684Z,9.20
2019-03-28T17:27:10.481Z,8.27
2019-03-28T17:29:57.397Z,12.07
2019-03-28T17:32:44.391Z,10.35
2019-03-28T17:35:30.995Z,7.75
2019-03-28T17:38:17.644Z,10.63
2019-03-28T17:41:06.666Z,8.55
2019-03-28T17:43:52.374Z,9.40
2019-03-28T17:46:39.179Z,8.88
2019-03-28T17:49:26.604Z,10.88
2019-03-28T17:52:13.545Z,11.50
2019-03-28T17:55:01.352Z,12.98
2019-03-28T17:57:49.068Z,9.52
2019-03-28T18:00:35.913Z,13.50
2019-03-28T18:03:31.046Z,11.38
2019-03-28T18:06:09.920Z,13.57
2019-03-28T18:08:56.884Z,15.50
2019-03-28T18:11:44.950Z,9.52
2019-03-28T18:14:31.567Z,10.35
2019-03-28T18:17:18.578Z,13.23
2019-03-28T18:20:05.723Z,12.93
2019-03-28T18:22:52.752Z,12.32
2019-03-28T18:28:47.098Z,13.10
2019-03-28T18:31:49.438Z,12.00
2019-03-28T18:34:22.466Z,11.00
2019-03-28T18:37:09.511Z,9.23
2019-03-28T18:39:56.710Z,12.70
2019-03-28T18:42:44.011Z,11.18
2019-03-28T18:45:33.892Z,13.07
2019-03-28T18:48:29.392Z,18.23
2019-03-28T18:51:06.501Z,14.87
2019-03-28T18:53:53.329Z,14.45
2019-03-28T18:56:49.868Z,13.75
2019-03-28T18:59:36.794Z,13.02
2019-03-28T19:02:23.994Z,11.93
2019-03-28T19:11:41.053Z,13.62
2019-03-28T19:14:34.864Z,12.95
2019-03-28T19:17:22.814Z,15.02
2019-03-28T19:20:12.732Z,12.30
2019-03-28T19:22:58.465Z,11.90
2019-03-28T19:28:56.775Z,11.45
2019-03-28T19:31:44.189Z,11.00
2019-03-28T19:34:31.054Z,14.07
2019-03-28T19:37:18.221Z,14.60
2019-03-28T19:40:08.196Z,13.18
2019-03-28T19:42:56.137Z,15.68
2019-03-28T19:45:43.658Z,13.30
2019-03-28T19:48:30.464Z,10.57
2019-03-28T19:51:20.127Z,11.40
2019-03-28T19:54:07.977Z,11.70
2019-03-28T19:56:57.241Z,11.88
2019-03-28T19:59:42.621Z,10.80
2019-03-28T20:02:30.264Z,20.15
2019-03-28T20:05:17.938Z,14.87
2019-03-28T20:08:15.398Z,11.90
2019-03-28T20:10:51.916Z,13.20
2019-03-28T20:13:39.660Z,11.07
2019-03-28T20:16:27.477Z,13.40
2019-03-28T20:19:17.725Z,14.23
2019-03-28T20:22:02.702Z,10.93
2019-03-28T20:24:49.780Z,13.65
2019-03-28T20:27:36.967Z,10.02
2019-03-28T20:30:23.887Z,12.45
2019-03-28T20:33:11.721Z,10.15
2019-03-28T20:36:18.898Z,12.27
2019-03-28T20:41:50.850Z,9.23
2019-03-28T20:48:56.679Z,11.18
2019-03-28T20:51:43.818Z,13.48
2019-03-28T20:54:30.834Z,11.20
2019-03-28T20:57:17.641Z,12.35
2019-03-28T21:00:08.643Z,10.52
2019-03-28T21:02:54.843Z,11.77
2019-03-28T21:08:47.807Z,12.60
2019-03-28T21:14:44.259Z,19.12
2019-03-28T21:17:32.272Z,13.62
2019-03-28T21:20:18.049Z,15.40
2019-03-28T21:23:05.784Z,14.07
2019-03-28T21:25:53.024Z,13.40
2019-03-28T21:28:56.029Z,13.15
2019-03-28T21:31:49.670Z,15.35
2019-03-28T21:34:29.814Z,14.60
2019-03-28T21:40:22.938Z,17.55
2019-03-28T21:43:09.813Z,13.80
2019-03-28T21:45:57.540Z,18.35
2019-03-28T21:51:50.220Z,15.95
2019-03-28T21:54:38.964Z,11.38
2019-03-28T21:57:25.642Z,11.57
2019-03-28T22:00:12.882Z,10.70
2019-03-28T22:02:59.574Z,12.25
2019-03-28T22:05:46.815Z,11.05
2019-03-28T22:08:33.499Z,14.00
2019-03-28T22:11:23.418Z,16.25
2019-03-28T22:14:10.211Z,11.57
2019-03-28T22:16:57.303Z,11.65
2019-03-28T22:19:44.845Z,15.30
2019-03-28T22:22:32.660Z,15.95
2019-03-28T22:25:19.399Z,17.27
2019-03-28T22:31:19.700Z,17.37
2019-03-28T22:34:07.142Z,22.50
2019-03-28T22:36:57.444Z,17.58
2019-03-28T22:39:40.765Z,21.40
2019-03-28T22:42:27.894Z,19.95
2019-03-28T22:45:15.777Z,14.23
2019-03-28T22:48:10.650Z,17.08
2019-03-28T22:50:50.358Z,18.15
2019-03-28T22:53:37.488Z,18.92
2019-03-28T22:56:24.822Z,16.50
2019-03-28T22:59:11.508Z,16.37
2019-03-28T23:01:58.215Z,15.75
2019-03-28T23:04:46.156Z,16.75
2019-03-28T23:10:40.441Z,11.63
2019-03-28T23:13:27.487Z,16.65
2019-03-28T23:16:14.070Z,14.20
2019-03-28T23:19:00.790Z,16.95
2019-03-28T23:21:47.437Z,11.30
2019-03-28T23:24:34.496Z,13.38
2019-03-28T23:30:28.639Z,14.32
2019-03-28T23:33:14.683Z,15.98
2019-03-28T23:36:01.924Z,10.85
2019-03-28T23:38:50.041Z,12.43
2019-03-28T23:41:37.368Z,16.08
2019-03-28T23:44:24.456Z,14.15
2019-03-28T23:47:11.299Z,19.42
2019-03-28T23:49:58.509Z,22.37
2019-03-28T23:52:46.578Z,16.75
2019-03-28T23:55:33.628Z,14.75
2019-03-28T23:58:21.042Z,15.45
